Terminal Aerodrome Forecast
Issued by NWS Duluth, MN

Home | Current Version | Previous Version | Text Only | Print | Product List | Glossary On
Versions: 1 2 3 4 5 6 7 8 9 10 11 12 13 14 15 16 17 18
000
FTUS43 KDLH 021753
TAFDLH
TAF
KDLH 021753Z 0218/0318 VRB03KT P6SM FEW050
     FM022000 18007KT P6SM SCT200
     FM030500 25006KT P6SM SCT150
     FM031100 26010KT P6SM SCT110=

USA.gov is the U.S. government's official web portal to all federal, state and local government web resources and services.